Time;durP1;ratioP1;P1;durP2;ratioP2;P2;SDS_P1;SDS_P2;PMS_P1;PMS_P2;Temp;Humidity;BMP_temperature;BMP_pressure;BME280_temperature;BME280_humidity;BME280_pressure;Samples;Min_cycle;Max_cycle;Signal;HPM_P1;HPM_P2
2020/12/15 00:01:23;;;;;;;17.42;10.63;;;;;;;;;;5053798;28;20102;-65
2020/12/15 00:03:50;;;;;;;19.33;10.88;;;;;;;;;;5053668;28;20029;-64
2020/12/15 00:06:17;;;;;;;19.15;9.60;;;;;;;;;;5053728;28;20108;-65
2020/12/15 00:08:43;;;;;;;14.98;9.23;;;;;;;;;;5053883;28;20477;-65
2020/12/15 00:11:09;;;;;;;15.80;9.27;;;;;;;;;;5053872;28;20025;-65
2020/12/15 00:13:36;;;;;;;12.90;8.05;;;;;;;;;;5053751;28;20394;-65
2020/12/15 00:16:02;;;;;;;11.20;6.80;;;;;;;;;;5053449;28;20059;-65
2020/12/15 00:18:28;;;;;;;13.38;7.20;;;;;;;;;;5053405;28;20021;-65
2020/12/15 00:20:54;;;;;;;11.82;7.50;;;;;;;;;;5053366;28;20029;-65
2020/12/15 00:23:20;;;;;;;12.20;7.25;;;;;;;;;;5053394;28;20027;-65
2020/12/15 00:25:47;;;;;;;12.43;7.70;;;;;;;;;;5053230;28;20075;-65
2020/12/15 00:28:14;;;;;;;12.95;7.53;;;;;;;;;;5053415;28;20029;-65
2020/12/15 00:30:40;;;;;;;10.93;6.93;;;;;;;;;;5053243;28;20485;-65
2020/12/15 00:33:06;;;;;;;14.02;8.25;;;;;;;;;;5053201;28;20107;-65
2020/12/15 00:35:32;;;;;;;13.68;7.45;;;;;;;;;;5053175;28;20116;-65
2020/12/15 00:37:58;;;;;;;12.77;7.53;;;;;;;;;;5053394;28;20132;-65
2020/12/15 00:40:24;;;;;;;10.57;6.60;;;;;;;;;;5053001;28;20036;-65
2020/12/15 00:42:50;;;;;;;10.65;6.00;;;;;;;;;;5052966;28;20090;-65
2020/12/15 00:45:16;;;;;;;11.25;6.22;;;;;;;;;;5053084;28;20098;-65
2020/12/15 00:47:43;;;;;;;8.57;5.45;;;;;;;;;;5053379;28;20033;-65
2020/12/15 00:50:09;;;;;;;10.50;5.38;;;;;;;;;;5052863;28;20466;-65
2020/12/15 00:52:35;;;;;;;9.73;5.70;;;;;;;;;;5052933;28;20492;-65
2020/12/15 00:55:01;;;;;;;9.80;5.78;;;;;;;;;;5052955;28;20032;-65
2020/12/15 00:57:27;;;;;;;10.93;6.15;;;;;;;;;;5053324;28;20398;-65
2020/12/15 00:59:53;;;;;;;19.75;6.20;;;;;;;;;;5053038;28;20033;-65
2020/12/15 01:02:20;;;;;;;10.90;5.50;;;;;;;;;;5052893;28;20025;-65
2020/12/15 01:04:46;;;;;;;10.98;6.03;;;;;;;;;;5052769;28;20484;-65
2020/12/15 01:07:12;;;;;;;8.90;5.68;;;;;;;;;;5053004;28;20079;-65
2020/12/15 01:09:39;;;;;;;8.80;5.30;;;;;;;;;;5053034;28;20082;-64
2020/12/15 01:12:09;;;;;;;12.70;6.25;;;;;;;;;;5053168;28;20029;-65
2020/12/15 01:14:35;;;;;;;10.23;5.93;;;;;;;;;;5053032;28;20037;-66
2020/12/15 01:17:01;;;;;;;9.77;6.00;;;;;;;;;;5052797;28;20119;-65
2020/12/15 01:19:27;;;;;;;12.05;6.43;;;;;;;;;;5052957;28;20117;-65
2020/12/15 01:21:54;;;;;;;17.77;6.60;;;;;;;;;;5052644;28;20036;-66
2020/12/15 01:24:21;;;;;;;13.15;5.55;;;;;;;;;;5053027;28;20052;-66
2020/12/15 01:26:47;;;;;;;7.95;5.03;;;;;;;;;;5052974;28;20033;-65
2020/12/15 01:29:13;;;;;;;7.28;4.40;;;;;;;;;;5052883;28;20120;-65
2020/12/15 01:31:39;;;;;;;6.97;4.43;;;;;;;;;;5052749;28;20049;-65
2020/12/15 01:34:06;;;;;;;7.57;4.10;;;;;;;;;;5054852;28;20036;-65
2020/12/15 01:36:33;;;;;;;9.02;4.93;;;;;;;;;;5056853;28;20017;-66
2020/12/15 01:38:59;;;;;;;8.90;4.78;;;;;;;;;;5056228;28;20075;-65
2020/12/15 01:41:25;;;;;;;7.60;4.13;;;;;;;;;;5056120;28;20136;-65
2020/12/15 01:43:52;;;;;;;8.35;4.40;;;;;;;;;;5056479;28;20029;-65
2020/12/15 01:46:18;;;;;;;30.45;11.73;;;;;;;;;;5056340;28;20504;-65
2020/12/15 01:48:44;;;;;;;20.20;8.63;;;;;;;;;;5056434;28;20104;-65
2020/12/15 01:51:10;;;;;;;11.00;6.55;;;;;;;;;;5056118;28;20056;-65
2020/12/15 01:53:36;;;;;;;12.45;6.55;;;;;;;;;;5056170;28;20029;-65
2020/12/15 01:56:03;;;;;;;11.80;6.55;;;;;;;;;;5056160;28;20025;-66
2020/12/15 01:58:29;;;;;;;10.10;5.35;;;;;;;;;;5056387;28;20035;-65
2020/12/15 02:00:55;;;;;;;11.98;6.60;;;;;;;;;;5055873;28;20033;-65
2020/12/15 02:03:21;;;;;;;10.00;5.50;;;;;;;;;;5056340;28;20025;-65
2020/12/15 02:05:47;;;;;;;7.78;5.28;;;;;;;;;;5055888;28;20493;-65
2020/12/15 02:08:13;;;;;;;14.98;6.57;;;;;;;;;;5055895;28;20033;-65
2020/12/15 02:10:39;;;;;;;10.27;5.90;;;;;;;;;;5055715;28;20074;-65
2020/12/15 02:13:05;;;;;;;9.18;5.40;;;;;;;;;;5055828;28;20032;-65
2020/12/15 02:15:32;;;;;;;8.90;5.28;;;;;;;;;;5055657;28;20031;-65
2020/12/15 02:17:58;;;;;;;9.32;6.05;;;;;;;;;;5055800;28;20112;-65
2020/12/15 02:20:24;;;;;;;9.95;6.22;;;;;;;;;;5055878;28;20108;-65
2020/12/15 02:22:50;;;;;;;11.90;6.55;;;;;;;;;;5055850;28;20025;-65
2020/12/15 02:25:16;;;;;;;12.07;6.65;;;;;;;;;;5055584;28;20032;-65
2020/12/15 02:27:43;;;;;;;10.30;6.15;;;;;;;;;;5055617;28;20033;-65
2020/12/15 02:30:09;;;;;;;11.70;6.53;;;;;;;;;;5055805;28;20054;-65
2020/12/15 02:32:35;;;;;;;11.63;6.38;;;;;;;;;;5055528;28;20097;-65
2020/12/15 02:35:02;;;;;;;10.15;6.13;;;;;;;;;;5055689;28;20068;-65
2020/12/15 02:37:28;;;;;;;9.35;5.82;;;;;;;;;;5055428;28;20028;-65
2020/12/15 02:39:59;;;;;;;12.52;6.10;;;;;;;;;;5055547;28;20377;-65
2020/12/15 02:42:28;;;;;;;12.02;6.70;;;;;;;;;;5046536;28;20071;-65
2020/12/15 02:44:54;;;;;;;10.25;5.57;;;;;;;;;;5053884;28;20500;-65
2020/12/15 02:47:20;;;;;;;10.70;6.05;;;;;;;;;;5055127;28;20075;-65
2020/12/15 02:49:46;;;;;;;11.63;7.50;;;;;;;;;;5055116;28;20025;-65
2020/12/15 02:52:14;;;;;;;12.52;7.13;;;;;;;;;;5054956;28;20035;-65
2020/12/15 02:54:41;;;;;;;11.80;7.15;;;;;;;;;;5055146;28;20025;-66
2020/12/15 02:57:07;;;;;;;11.35;6.63;;;;;;;;;;5055279;28;20025;-66
2020/12/15 02:59:33;;;;;;;11.43;6.78;;;;;;;;;;5055136;28;20083;-65
2020/12/15 03:01:59;;;;;;;12.30;6.65;;;;;;;;;;5054857;28;20478;-65
2020/12/15 03:04:25;;;;;;;10.60;6.68;;;;;;;;;;5054853;28;20028;-65
2020/12/15 03:06:51;;;;;;;14.20;6.43;;;;;;;;;;5054781;28;20466;-66
2020/12/15 03:09:17;;;;;;;13.40;7.40;;;;;;;;;;5055075;28;20404;-65
2020/12/15 03:11:44;;;;;;;11.30;7.05;;;;;;;;;;5054750;28;20484;-65
2020/12/15 03:14:10;;;;;;;9.93;6.00;;;;;;;;;;5054644;28;20482;-65
2020/12/15 03:16:36;;;;;;;12.43;6.80;;;;;;;;;;5054535;28;20029;-65
2020/12/15 03:19:02;;;;;;;11.20;7.00;;;;;;;;;;5054777;28;20049;-65
2020/12/15 03:21:30;;;;;;;12.40;6.72;;;;;;;;;;5054307;28;20036;-65
2020/12/15 03:23:56;;;;;;;10.95;6.10;;;;;;;;;;5054508;28;20523;-65
2020/12/15 03:26:23;;;;;;;9.68;6.13;;;;;;;;;;5054506;28;20033;-65
2020/12/15 03:28:49;;;;;;;13.43;6.75;;;;;;;;;;5055104;28;20166;-66
2020/12/15 03:31:15;;;;;;;10.88;6.70;;;;;;;;;;5054731;28;20039;-65
2020/12/15 03:33:42;;;;;;;10.77;6.15;;;;;;;;;;5053050;28;20453;-65
2020/12/15 03:36:08;;;;;;;12.20;6.13;;;;;;;;;;5054649;28;20040;-65
2020/12/15 03:38:35;;;;;;;10.90;6.25;;;;;;;;;;5054316;28;20028;-65
2020/12/15 03:41:01;;;;;;;10.70;6.18;;;;;;;;;;5053830;28;20041;-65
2020/12/15 03:43:27;;;;;;;9.43;5.63;;;;;;;;;;5054256;28;20037;-65
2020/12/15 03:45:53;;;;;;;10.18;5.78;;;;;;;;;;5054098;28;20040;-65
2020/12/15 03:48:19;;;;;;;8.90;5.18;;;;;;;;;;5054098;28;20032;-65
2020/12/15 03:50:45;;;;;;;9.15;5.55;;;;;;;;;;5053919;28;20029;-65
2020/12/15 03:53:11;;;;;;;10.43;5.32;;;;;;;;;;5054121;28;20029;-65
2020/12/15 03:55:38;;;;;;;7.95;4.80;;;;;;;;;;5053668;28;20462;-65
2020/12/15 03:58:04;;;;;;;10.00;4.70;;;;;;;;;;5053942;28;20072;-65
2020/12/15 04:00:30;;;;;;;9.35;4.68;;;;;;;;;;5054028;28;20056;-65
2020/12/15 04:02:56;;;;;;;7.60;4.60;;;;;;;;;;5053695;28;20461;-65
2020/12/15 04:05:22;;;;;;;8.82;4.75;;;;;;;;;;5053744;28;20133;-65
2020/12/15 04:07:48;;;;;;;11.60;4.65;;;;;;;;;;5053624;28;20017;-65
2020/12/15 04:10:17;;;;;;;7.45;4.53;;;;;;;;;;5053644;28;20033;-65
2020/12/15 04:12:44;;;;;;;6.85;4.10;;;;;;;;;;5053751;28;20120;-65
2020/12/15 04:15:10;;;;;;;7.00;3.88;;;;;;;;;;5053519;28;20611;-65
2020/12/15 04:17:36;;;;;;;6.60;4.00;;;;;;;;;;5053711;28;20112;-65
2020/12/15 04:20:06;;;;;;;6.93;4.00;;;;;;;;;;5053669;28;20039;-66
2020/12/15 04:22:32;;;;;;;9.23;4.30;;;;;;;;;;5053162;28;20055;-65
2020/12/15 04:24:59;;;;;;;7.18;4.30;;;;;;;;;;5053330;28;20481;-65
2020/12/15 04:27:26;;;;;;;5.72;4.05;;;;;;;;;;5053264;28;20075;-65
2020/12/15 04:29:52;;;;;;;7.65;4.53;;;;;;;;;;5053570;28;20087;-65
2020/12/15 04:32:18;;;;;;;9.15;5.22;;;;;;;;;;5053499;28;20068;-65
2020/12/15 04:34:44;;;;;;;10.13;5.07;;;;;;;;;;5053252;28;20021;-65
2020/12/15 04:37:10;;;;;;;7.75;4.10;;;;;;;;;;5053502;28;20035;-65
2020/12/15 04:39:36;;;;;;;7.00;4.57;;;;;;;;;;5053165;28;20118;-65
2020/12/15 04:42:03;;;;;;;7.22;4.50;;;;;;;;;;5052976;28;20498;-65
2020/12/15 04:44:30;;;;;;;7.65;4.70;;;;;;;;;;5053389;28;20064;-65
2020/12/15 04:47:02;;;;;;;7.35;4.28;;;;;;;;;;5052989;28;20478;-65
2020/12/15 04:49:31;;;;;;;7.72;4.22;;;;;;;;;;5053185;28;20430;-65
2020/12/15 04:52:01;;;;;;;7.90;4.00;;;;;;;;;;5053304;28;20377;-65
2020/12/15 04:54:32;;;;;;;5.63;3.70;;;;;;;;;;5052997;28;20029;-65
2020/12/15 04:57:02;;;;;;;6.20;4.07;;;;;;;;;;5053326;28;20029;-65
2020/12/15 04:59:32;;;;;;;6.65;3.75;;;;;;;;;;5052870;28;20044;-64
2020/12/15 05:01:59;;;;;;;8.02;4.25;;;;;;;;;;5052955;28;20021;-65
2020/12/15 05:04:26;;;;;;;6.68;3.60;;;;;;;;;;5053123;28;20106;-65
2020/12/15 05:06:53;;;;;;;7.93;4.13;;;;;;;;;;5053166;28;20455;-65
2020/12/15 05:09:29;;;;;;;6.45;3.72;;;;;;;;;;5055440;28;20032;-65
2020/12/15 05:11:56;;;;;;;10.60;4.15;;;;;;;;;;5057403;28;20029;-65
2020/12/15 05:14:22;;;;;;;12.30;4.13;;;;;;;;;;5056861;28;20056;-65
2020/12/15 05:16:48;;;;;;;10.23;4.18;;;;;;;;;;5056904;28;20025;-65
2020/12/15 05:19:14;;;;;;;8.25;3.97;;;;;;;;;;5056940;28;20474;-65
2020/12/15 05:21:40;;;;;;;7.50;3.85;;;;;;;;;;5056663;28;20036;-65
2020/12/15 05:24:09;;;;;;;7.72;4.22;;;;;;;;;;5056830;28;20470;-65
2020/12/15 05:26:35;;;;;;;11.80;3.95;;;;;;;;;;5056638;28;20504;-65
2020/12/15 05:29:05;;;;;;;6.90;3.45;;;;;;;;;;5056596;28;20029;-65
2020/12/15 05:31:31;;;;;;;6.32;3.97;;;;;;;;;;5056713;28;20116;-64
2020/12/15 05:33:58;;;;;;;10.38;3.85;;;;;;;;;;5056406;28;20018;-65
2020/12/15 05:36:24;;;;;;;8.02;4.07;;;;;;;;;;5056900;28;20070;-64
2020/12/15 05:39:09;;;;;;;10.55;4.32;;;;;;;;;;5038643;28;20032;-65
2020/12/15 05:41:35;;;;;;;8.55;4.40;;;;;;;;;;5056473;28;20418;-65
2020/12/15 05:44:02;;;;;;;6.40;4.30;;;;;;;;;;5056553;28;20104;-65
2020/12/15 05:46:33;;;;;;;10.10;4.60;;;;;;;;;;5056708;28;20025;-65
2020/12/15 05:49:06;;;;;;;9.75;4.90;;;;;;;;;;5056253;28;20065;-65
2020/12/15 05:51:38;;;;;;;8.18;5.30;;;;;;;;;;5056572;28;20025;-65
2020/12/15 05:54:08;;;;;;;14.85;7.13;;;;;;;;;;5056089;28;20075;-65
2020/12/15 05:56:37;;;;;;;11.15;7.43;;;;;;;;;;5056531;28;20078;-65
2020/12/15 05:59:14;;;;;;;13.88;8.38;;;;;;;;;;5055965;28;20082;-64
2020/12/15 06:01:40;;;;;;;16.77;9.48;;;;;;;;;;5056095;28;20032;-65
2020/12/15 06:04:06;;;;;;;13.73;8.75;;;;;;;;;;5055990;28;20509;-64
2020/12/15 06:06:33;;;;;;;13.90;8.07;;;;;;;;;;5056127;28;20112;-65
2020/12/15 06:09:00;;;;;;;14.38;7.38;;;;;;;;;;5055922;28;20116;-65
2020/12/15 06:11:26;;;;;;;18.15;9.07;;;;;;;;;;5056036;28;20052;-64
2020/12/15 06:13:53;;;;;;;16.27;8.05;;;;;;;;;;5055905;28;20025;-65
2020/12/15 06:16:19;;;;;;;13.80;6.97;;;;;;;;;;5056024;28;20021;-65
2020/12/15 06:18:46;;;;;;;19.70;13.27;;;;;;;;;;5038222;28;20029;-65
2020/12/15 06:21:13;;;;;;;17.48;7.85;;;;;;;;;;5056026;28;20425;-65
2020/12/15 06:23:39;;;;;;;10.15;4.82;;;;;;;;;;5055781;28;20108;-65
2020/12/15 06:26:05;;;;;;;9.35;6.07;;;;;;;;;;5055723;28;20041;-65
2020/12/15 06:28:32;;;;;;;13.32;6.25;;;;;;;;;;5055642;28;20027;-65
2020/12/15 06:30:59;;;;;;;18.63;6.20;;;;;;;;;;5055563;28;20029;-65
2020/12/15 06:33:35;;;;;;;20.58;6.30;;;;;;;;;;5055400;28;20053;-64
2020/12/15 06:36:01;;;;;;;14.60;6.60;;;;;;;;;;5037631;28;20454;-65
2020/12/15 06:38:27;;;;;;;12.70;6.20;;;;;;;;;;5055359;28;20021;-65
2020/12/15 06:40:54;;;;;;;11.30;6.47;;;;;;;;;;5055016;28;20090;-63
2020/12/15 06:43:30;;;;;;;15.45;6.53;;;;;;;;;;5055677;28;20033;-65
2020/12/15 06:46:10;;;;;;;21.25;6.28;;;;;;;;;;5055453;28;20115;-65
2020/12/15 06:48:37;;;;;;;14.20;8.23;;;;;;;;;;5055544;28;20381;-65
2020/12/15 06:51:03;;;;;;;31.65;15.07;;;;;;;;;;5055009;28;20037;-64
2020/12/15 06:53:29;;;;;;;19.85;12.80;;;;;;;;;;5055428;28;20025;-65
2020/12/15 06:55:59;;;;;;;10.95;5.47;;;;;;;;;;5053189;28;20041;-65
2020/12/15 06:58:25;;;;;;;17.60;7.13;;;;;;;;;;5049261;28;20025;-65
2020/12/15 07:00:52;;;;;;;17.52;7.10;;;;;;;;;;5035010;28;20033;-65
2020/12/15 07:03:33;;;;;;;13.27;5.63;;;;;;;;;;5035045;28;20053;-65
2020/12/15 07:06:07;;;;;;;10.80;5.80;;;;;;;;;;5035002;28;20079;-64
2020/12/15 07:08:33;;;;;;;13.57;7.07;;;;;;;;;;5049337;28;20033;-64
2020/12/15 07:11:00;;;;;;;16.55;7.22;;;;;;;;;;5042197;28;20118;-64
2020/12/15 07:13:26;;;;;;;18.20;6.95;;;;;;;;;;5038536;28;20488;-64
2020/12/15 07:15:52;;;;;;;21.73;7.25;;;;;;;;;;5034933;28;20355;-64
2020/12/15 07:18:18;;;;;;;27.55;7.03;;;;;;;;;;5034733;28;20040;-64
2020/12/15 07:20:45;;;;;;;18.60;6.78;;;;;;;;;;5034649;28;20057;-65
2020/12/15 07:23:11;;;;;;;13.48;5.97;;;;;;;;;;5034624;28;20032;-64
2020/12/15 07:25:37;;;;;;;22.88;6.57;;;;;;;;;;5049839;28;20031;-64
2020/12/15 07:28:03;;;;;;;16.88;7.93;;;;;;;;;;5038271;28;20026;-63
2020/12/15 07:30:30;;;;;;;16.42;7.28;;;;;;;;;;5035465;28;20112;-65
2020/12/15 07:32:56;;;;;;;16.30;6.35;;;;;;;;;;5034191;28;20030;-64
2020/12/15 07:35:27;;;;;;;22.30;8.10;;;;;;;;;;5034259;28;20029;-63
2020/12/15 07:37:56;;;;;;;14.82;6.95;;;;;;;;;;5034362;28;20068;-63
2020/12/15 07:40:23;;;;;;;11.25;6.10;;;;;;;;;;5034436;28;20486;-64
2020/12/15 07:42:56;;;;;;;22.10;6.75;;;;;;;;;;5034180;28;20133;-63
2020/12/15 07:45:23;;;;;;;21.65;6.68;;;;;;;;;;5034193;28;20022;-65
2020/12/15 07:47:50;;;;;;;17.40;7.43;;;;;;;;;;5034087;28;20026;-65
2020/12/15 07:50:16;;;;;;;18.13;8.77;;;;;;;;;;5034383;28;20033;-63
2020/12/15 07:52:42;;;;;;;21.17;9.18;;;;;;;;;;5034339;28;20025;-64
2020/12/15 07:55:10;;;;;;;39.78;10.93;;;;;;;;;;5033934;28;20056;-65
2020/12/15 07:57:38;;;;;;;59.33;11.43;;;;;;;;;;5033963;28;20025;-65
2020/12/15 08:00:17;;;;;;;22.65;9.95;;;;;;;;;;5036213;28;20041;-64
2020/12/15 08:02:44;;;;;;;20.20;9.73;;;;;;;;;;5033902;28;20038;-65
2020/12/15 08:05:21;;;;;;;15.85;8.30;;;;;;;;;;5033732;28;20029;-64
2020/12/15 08:07:50;;;;;;;29.80;9.05;;;;;;;;;;5033915;28;20494;-65
2020/12/15 08:10:30;;;;;;;17.25;6.95;;;;;;;;;;5033625;28;20056;-65
2020/12/15 08:12:57;;;;;;;55.28;8.65;;;;;;;;;;5042305;28;20143;-65
2020/12/15 08:15:23;;;;;;;13.65;6.53;;;;;;;;;;5038682;28;20051;-63
2020/12/15 08:17:50;;;;;;;12.23;5.25;;;;;;;;;;5042052;28;20032;-64
2020/12/15 08:20:16;;;;;;;13.20;7.07;;;;;;;;;;5041216;28;20046;-63
2020/12/15 08:22:45;;;;;;;17.20;6.93;;;;;;;;;;5036401;28;20040;-65
2020/12/15 08:25:12;;;;;;;16.85;6.82;;;;;;;;;;5051915;28;20029;-63
2020/12/15 08:27:38;;;;;;;18.25;6.00;;;;;;;;;;5033378;28;20540;-65
2020/12/15 08:30:14;;;;;;;18.98;7.45;;;;;;;;;;5033698;28;20029;-65
2020/12/15 08:32:44;;;;;;;52.25;18.02;;;;;;;;;;5033432;28;20025;-65
2020/12/15 08:35:10;;;;;;;19.10;9.38;;;;;;;;;;5033824;28;20032;-65
2020/12/15 08:37:38;;;;;;;22.80;9.52;;;;;;;;;;5033496;28;20029;-65
2020/12/15 08:40:06;;;;;;;21.63;7.93;;;;;;;;;;5033456;28;20041;-65
2020/12/15 08:42:33;;;;;;;31.27;14.98;;;;;;;;;;5033042;28;20115;-64
2020/12/15 08:44:59;;;;;;;21.23;7.65;;;;;;;;;;5033159;28;20470;-65
2020/12/15 08:47:25;;;;;;;19.15;9.57;;;;;;;;;;5033424;28;20381;-65
2020/12/15 08:49:55;;;;;;;22.85;8.57;;;;;;;;;;5033462;28;20113;-65
2020/12/15 08:52:22;;;;;;;18.02;6.63;;;;;;;;;;5032991;28;20040;-65
2020/12/15 08:54:50;;;;;;;22.25;6.88;;;;;;;;;;5036754;28;20477;-65
2020/12/15 08:57:17;;;;;;;13.73;4.97;;;;;;;;;;5052760;28;20029;-65
2020/12/15 08:59:43;;;;;;;16.58;4.93;;;;;;;;;;5052896;28;20041;-66
2020/12/15 09:02:11;;;;;;;13.60;6.63;;;;;;;;;;5052947;28;20029;-66
2020/12/15 09:04:38;;;;;;;14.13;6.38;;;;;;;;;;5052797;28;20040;-66
2020/12/15 09:07:19;;;;;;;17.83;6.25;;;;;;;;;;5050024;28;20072;-65
2020/12/15 09:09:46;;;;;;;9.75;5.72;;;;;;;;;;5043424;28;20064;-64
2020/12/15 09:12:12;;;;;;;19.90;5.72;;;;;;;;;;5042555;28;20429;-67
2020/12/15 09:14:38;;;;;;;23.35;6.55;;;;;;;;;;5035775;28;20052;-65
2020/12/15 09:17:05;;;;;;;18.70;6.80;;;;;;;;;;5032814;28;20017;-66
2020/12/15 09:19:31;;;;;;;21.85;7.45;;;;;;;;;;5032799;28;20036;-66
2020/12/15 09:21:59;;;;;;;14.43;6.80;;;;;;;;;;5033008;28;20536;-66
2020/12/15 09:24:25;;;;;;;17.02;7.18;;;;;;;;;;5033548;28;20028;-66
2020/12/15 09:26:52;;;;;;;18.52;6.75;;;;;;;;;;5033123;28;20363;-66
2020/12/15 09:29:18;;;;;;;15.93;6.70;;;;;;;;;;5032829;28;20028;-66
2020/12/15 09:31:53;;;;;;;14.02;5.78;;;;;;;;;;5032771;28;20104;-66
2020/12/15 09:34:20;;;;;;;14.80;4.95;;;;;;;;;;5033067;28;20372;-67
2020/12/15 09:36:56;;;;;;;17.08;6.00;;;;;;;;;;5032616;28;20397;-66
2020/12/15 09:39:23;;;;;;;16.65;5.30;;;;;;;;;;5032731;28;20068;-67
2020/12/15 09:41:50;;;;;;;17.63;5.47;;;;;;;;;;5032290;28;20124;-66
2020/12/15 09:44:16;;;;;;;15.82;5.13;;;;;;;;;;5038420;28;20462;-65
2020/12/15 09:46:42;;;;;;;21.42;7.05;;;;;;;;;;5017646;28;20112;-66
2020/12/15 09:49:09;;;;;;;22.00;7.78;;;;;;;;;;5040492;28;20021;-65
2020/12/15 09:51:35;;;;;;;28.30;8.50;;;;;;;;;;5032641;28;20592;-65
2020/12/15 09:54:01;;;;;;;28.95;8.68;;;;;;;;;;5041143;28;20036;-65
2020/12/15 09:56:28;;;;;;;26.75;9.18;;;;;;;;;;5052014;28;20036;-65
2020/12/15 09:58:55;;;;;;;25.27;10.27;;;;;;;;;;5036205;28;20036;-66
2020/12/15 10:01:21;;;;;;;24.85;8.38;;;;;;;;;;5041213;28;20041;-64
2020/12/15 10:03:48;;;;;;;18.95;8.70;;;;;;;;;;5054180;28;20438;-64
2020/12/15 10:06:17;;;;;;;22.65;9.05;;;;;;;;;;5055865;28;20155;-64
2020/12/15 10:08:44;;;;;;;20.40;7.57;;;;;;;;;;5042907;28;20124;-64
2020/12/15 10:11:14;;;;;;;18.15;7.57;;;;;;;;;;5044137;28;20053;-64
2020/12/15 10:13:40;;;;;;;21.33;9.05;;;;;;;;;;5055683;28;20021;-63
2020/12/15 10:16:06;;;;;;;25.10;8.90;;;;;;;;;;5055282;28;20033;-64
2020/12/15 10:18:33;;;;;;;25.83;10.13;;;;;;;;;;5055525;28;20029;-64
2020/12/15 10:20:59;;;;;;;25.10;9.40;;;;;;;;;;5055546;28;20059;-64
2020/12/15 10:23:25;;;;;;;20.02;9.77;;;;;;;;;;5043954;28;20482;-64
2020/12/15 10:25:52;;;;;;;22.55;9.70;;;;;;;;;;5035841;28;20036;-66
2020/12/15 10:28:18;;;;;;;19.20;9.23;;;;;;;;;;5042019;28;20026;-65
2020/12/15 10:30:47;;;;;;;21.42;9.52;;;;;;;;;;5050647;28;20039;-66
2020/12/15 10:33:13;;;;;;;13.15;8.32;;;;;;;;;;5055112;28;20052;-64
2020/12/15 10:35:39;;;;;;;20.83;8.88;;;;;;;;;;5055409;28;20600;-63
2020/12/15 10:38:06;;;;;;;23.13;9.90;;;;;;;;;;5037105;28;20036;-63
2020/12/15 10:40:37;;;;;;;22.00;8.93;;;;;;;;;;5055448;28;20123;-64
2020/12/15 10:43:04;;;;;;;32.17;10.45;;;;;;;;;;5055083;28;20045;-66
2020/12/15 10:45:32;;;;;;;25.13;9.95;;;;;;;;;;5055294;28;20163;-66
2020/12/15 10:47:58;;;;;;;26.75;10.23;;;;;;;;;;5037202;28;20044;-67
2020/12/15 10:50:25;;;;;;;24.42;10.00;;;;;;;;;;5055332;28;20458;-65
2020/12/15 10:52:51;;;;;;;27.45;11.18;;;;;;;;;;5055119;28;20025;-65
2020/12/15 10:55:17;;;;;;;30.88;10.20;;;;;;;;;;5048953;28;20086;-64
2020/12/15 10:57:43;;;;;;;20.67;9.05;;;;;;;;;;5037698;28;20029;-65
2020/12/15 11:00:10;;;;;;;17.08;8.65;;;;;;;;;;5035044;28;20390;-65
2020/12/15 11:02:37;;;;;;;27.38;10.73;;;;;;;;;;5034942;28;20037;-66
2020/12/15 11:05:03;;;;;;;23.77;8.90;;;;;;;;;;5034967;28;20105;-66
2020/12/15 11:07:32;;;;;;;29.17;12.10;;;;;;;;;;5036355;28;20437;-66
2020/12/15 11:09:58;;;;;;;40.33;17.35;;;;;;;;;;5043600;28;20065;-65
2020/12/15 11:12:24;;;;;;;102.30;54.75;;;;;;;;;;5045138;28;20033;-66
2020/12/15 11:14:51;;;;;;;54.90;22.60;;;;;;;;;;5042667;28;20074;-64
2020/12/15 11:17:17;;;;;;;56.92;20.85;;;;;;;;;;5040956;28;20497;-65
2020/12/15 11:19:43;;;;;;;50.70;21.75;;;;;;;;;;5044173;28;20045;-65
2020/12/15 11:22:09;;;;;;;34.67;11.00;;;;;;;;;;5050064;28;20174;-67
2020/12/15 11:24:36;;;;;;;35.67;11.63;;;;;;;;;;5054425;28;20363;-66
2020/12/15 11:27:03;;;;;;;37.83;12.68;;;;;;;;;;5052520;28;20037;-65
2020/12/15 11:29:29;;;;;;;35.80;11.68;;;;;;;;;;5034351;28;20096;-64
2020/12/15 11:31:56;;;;;;;34.72;8.85;;;;;;;;;;5044293;28;20029;-66
2020/12/15 11:34:22;;;;;;;27.58;9.07;;;;;;;;;;5054172;28;20048;-66
2020/12/15 11:36:52;;;;;;;22.83;9.13;;;;;;;;;;5048728;28;20483;-65
2020/12/15 11:39:18;;;;;;;32.65;8.45;;;;;;;;;;5045641;28;20029;-65
2020/12/15 11:41:46;;;;;;;25.58;7.50;;;;;;;;;;5038833;28;20100;-65
2020/12/15 11:44:12;;;;;;;23.70;9.63;;;;;;;;;;5044095;28;20069;-67
2020/12/15 11:46:38;;;;;;;30.65;9.85;;;;;;;;;;5044103;28;20108;-64
2020/12/15 11:49:04;;;;;;;20.90;9.55;;;;;;;;;;5042532;28;20049;-65
2020/12/15 11:51:30;;;;;;;20.95;8.68;;;;;;;;;;5042545;28;20028;-64
2020/12/15 11:53:57;;;;;;;20.98;9.20;;;;;;;;;;5045050;28;20090;-66
2020/12/15 11:56:23;;;;;;;15.73;7.78;;;;;;;;;;5054420;28;20033;-67
2020/12/15 11:58:49;;;;;;;12.25;6.30;;;;;;;;;;5054092;28;20425;-67
2020/12/15 12:01:15;;;;;;;18.90;5.30;;;;;;;;;;5054026;28;20394;-67
2020/12/15 12:03:41;;;;;;;14.52;6.13;;;;;;;;;;5054205;28;20025;-67
2020/12/15 12:06:07;;;;;;;13.95;5.63;;;;;;;;;;5053698;28;20021;-67
2020/12/15 12:08:34;;;;;;;15.38;5.18;;;;;;;;;;5054049;28;20029;-67
2020/12/15 12:11:00;;;;;;;9.82;4.60;;;;;;;;;;5053869;28;20048;-67
2020/12/15 12:13:26;;;;;;;7.90;4.32;;;;;;;;;;5053900;28;20102;-67
2020/12/15 12:15:52;;;;;;;7.93;4.18;;;;;;;;;;5053848;28;20412;-67
2020/12/15 12:18:18;;;;;;;17.55;6.82;;;;;;;;;;5053642;28;20385;-67
2020/12/15 12:20:45;;;;;;;14.15;6.07;;;;;;;;;;5053391;28;20033;-67
2020/12/15 12:23:11;;;;;;;8.70;5.40;;;;;;;;;;5053476;28;20025;-67
2020/12/15 12:25:37;;;;;;;11.98;4.63;;;;;;;;;;5053402;28;20547;-67
2020/12/15 12:28:03;;;;;;;11.18;4.45;;;;;;;;;;5053899;28;20439;-67
2020/12/15 12:30:29;;;;;;;10.10;4.30;;;;;;;;;;5053226;28;20094;-66
2020/12/15 12:32:56;;;;;;;6.45;4.18;;;;;;;;;;5053587;28;20013;-66
2020/12/15 12:35:22;;;;;;;16.20;4.88;;;;;;;;;;5053572;28;20036;-67
2020/12/15 12:37:48;;;;;;;12.52;5.28;;;;;;;;;;5053242;28;20037;-67
2020/12/15 12:40:14;;;;;;;9.98;6.10;;;;;;;;;;5053423;28;20413;-67
2020/12/15 12:42:40;;;;;;;11.48;6.82;;;;;;;;;;5053054;28;20530;-67
2020/12/15 12:45:06;;;;;;;18.20;6.93;;;;;;;;;;5053156;28;20029;-67
2020/12/15 12:47:33;;;;;;;15.35;6.45;;;;;;;;;;5053177;28;20033;-67
2020/12/15 12:49:59;;;;;;;15.07;6.88;;;;;;;;;;5053102;28;20017;-65
2020/12/15 12:52:25;;;;;;;12.95;7.30;;;;;;;;;;5053122;28;20067;-67
2020/12/15 12:54:51;;;;;;;16.77;8.35;;;;;;;;;;5035192;28;20389;-67
2020/12/15 12:57:17;;;;;;;13.68;7.60;;;;;;;;;;5053277;28;20056;-68
2020/12/15 12:59:43;;;;;;;22.77;9.18;;;;;;;;;;5052990;28;20650;-67
2020/12/15 13:02:10;;;;;;;16.65;7.97;;;;;;;;;;5053280;28;20116;-67
2020/12/15 13:04:36;;;;;;;14.30;7.85;;;;;;;;;;5053262;28;20025;-67
2020/12/15 13:07:02;;;;;;;25.52;8.00;;;;;;;;;;5053024;28;20087;-67
2020/12/15 13:09:29;;;;;;;13.13;7.72;;;;;;;;;;5052853;28;20021;-67
2020/12/15 13:11:56;;;;;;;14.07;7.57;;;;;;;;;;5052797;28;20033;-67
2020/12/15 13:14:23;;;;;;;17.17;8.60;;;;;;;;;;5052844;28;20021;-67
2020/12/15 13:16:49;;;;;;;19.80;9.43;;;;;;;;;;5052815;28;20130;-67
2020/12/15 13:19:16;;;;;;;18.67;10.43;;;;;;;;;;5053083;28;20079;-66
2020/12/15 13:21:42;;;;;;;26.75;12.05;;;;;;;;;;5052996;28;20029;-67
2020/12/15 13:24:08;;;;;;;25.20;13.30;;;;;;;;;;5052883;28;20017;-67
2020/12/15 13:26:34;;;;;;;27.60;13.68;;;;;;;;;;5050003;28;20035;-67
2020/12/15 13:29:00;;;;;;;52.75;27.08;;;;;;;;;;5043199;28;20100;-66
2020/12/15 13:31:26;;;;;;;45.83;24.00;;;;;;;;;;5043490;28;20083;-65
2020/12/15 13:33:52;;;;;;;53.08;25.15;;;;;;;;;;5037871;28;20057;-67
2020/12/15 13:36:19;;;;;;;56.90;24.58;;;;;;;;;;5049779;28;20385;-66
2020/12/15 13:38:45;;;;;;;46.95;23.85;;;;;;;;;;5056836;28;20032;-66
2020/12/15 13:41:11;;;;;;;54.92;27.45;;;;;;;;;;5056328;28;20509;-66
2020/12/15 13:43:37;;;;;;;57.65;30.17;;;;;;;;;;5046100;28;20113;-67
2020/12/15 13:46:06;;;;;;;51.35;26.23;;;;;;;;;;5036182;28;20029;-66
2020/12/15 13:48:32;;;;;;;53.45;20.77;;;;;;;;;;5036543;28;20104;-67
2020/12/15 13:50:59;;;;;;;39.17;18.38;;;;;;;;;;5036721;28;20104;-67
2020/12/15 13:53:25;;;;;;;47.47;17.70;;;;;;;;;;5036560;28;20044;-67
2020/12/15 13:55:51;;;;;;;40.63;17.15;;;;;;;;;;5036254;28;20033;-68
2020/12/15 13:58:17;;;;;;;43.50;17.27;;;;;;;;;;5018329;28;20018;-67
2020/12/15 14:00:44;;;;;;;41.80;16.38;;;;;;;;;;5036337;28;20037;-68
2020/12/15 14:03:10;;;;;;;34.35;14.77;;;;;;;;;;5036136;28;20037;-68
2020/12/15 14:05:37;;;;;;;29.30;13.27;;;;;;;;;;5036180;28;20047;-67
2020/12/15 14:08:03;;;;;;;23.35;12.18;;;;;;;;;;5036052;28;20550;-67
2020/12/15 14:10:29;;;;;;;33.85;11.90;;;;;;;;;;5036145;28;20501;-68
2020/12/15 14:12:55;;;;;;;21.48;9.65;;;;;;;;;;5035933;28;20021;-67
2020/12/15 14:15:21;;;;;;;23.83;11.00;;;;;;;;;;5047106;28;20037;-68
2020/12/15 14:17:47;;;;;;;24.92;11.90;;;;;;;;;;5036083;28;20022;-68
2020/12/15 14:20:14;;;;;;;24.88;8.75;;;;;;;;;;5036048;28;20041;-67
2020/12/15 14:22:40;;;;;;;35.30;12.77;;;;;;;;;;5036183;28;20025;-67
2020/12/15 14:25:06;;;;;;;26.25;7.72;;;;;;;;;;5035787;28;20041;-68
2020/12/15 14:27:32;;;;;;;31.05;7.90;;;;;;;;;;5035643;28;20072;-67
2020/12/15 14:29:58;;;;;;;21.95;7.45;;;;;;;;;;5035730;28;20026;-68